RUK198P EGCC-GMTT
Flight info
| Callsign | RUK198P |
|---|---|
| Flight time | 2h 44m |
| Altitude | 37000 |
| Route | KUXEM P17 BEPHE DCT OSSEP DCT ELNIF DCT ZESPE DCT KLAKI DCT SALCO DCT GOPIN DCT DELOG DCT VADOX DCT SNR DCT TITAN DCT RATAS DCT NEA DCT NONTU DCT ORBIS DCT DISKO DCT TLD DCT DOPEN DCT MONTO DCT MOLIN DCT VJF N10 LINTO DCT NOLRO |
| Aircraft | B738/M-SDE2E3FGHIRWXY/LB1 |
Departure
| Time | 2026-04-20 07:40 |
|---|---|
| Airport | Manchester Airport (EGCC) |
Arrival
| Time | 2026-04-20 10:25 |
|---|---|
| Airport | Tangier Ibn Battuta Airport (GMTT) |
| Time | Latitude | Longitude | Altitude | Speed | Heading |
|---|---|---|---|---|---|
| 2026-04-20 07:07 | 53.35927 | -2.26987 | 254 ft | 0 kts | 276° |
| 2026-04-20 07:31 | 53.35926 | -2.26977 | 254 ft | 2 kts | 277° |
| 2026-04-20 07:31 | 53.35923 | -2.26944 | 254 ft | 3 kts | 279° |
| 2026-04-20 07:31 | 53.35920 | -2.26911 | 254 ft | 3 kts | 277° |
| 2026-04-20 07:31 | 53.35918 | -2.26878 | 254 ft | 3 kts | 265° |
| 2026-04-20 07:32 | 53.35923 | -2.26855 | 254 ft | 2 kts | 221° |
| 2026-04-20 07:32 | 53.35931 | -2.26843 | 254 ft | 3 kts | 211° |
| 2026-04-20 07:32 | 53.35946 | -2.26835 | 254 ft | 3 kts | 162° |
| 2026-04-20 07:32 | 53.35964 | -2.26847 | 254 ft | 2 kts | 168° |
| 2026-04-20 07:33 | 53.35970 | -2.26849 | 254 ft | 0 kts | 178° |
| 2026-04-20 07:35 | 53.35969 | -2.26849 | 254 ft | 1 kts | 178° |
| 2026-04-20 07:35 | 53.35953 | -2.26847 | 254 ft | 4 kts | 171° |
| 2026-04-20 07:35 | 53.35926 | -2.26813 | 254 ft | 6 kts | 115° |
| 2026-04-20 07:36 | 53.35910 | -2.26739 | 255 ft | 7 kts | 121° |
| 2026-04-20 07:36 | 53.35868 | -2.26699 | 258 ft | 7 kts | 168° |
| 2026-04-20 07:36 | 53.35820 | -2.26683 | 263 ft | 7 kts | 169° |
| 2026-04-20 07:36 | 53.35754 | -2.26663 | 263 ft | 13 kts | 170° |
| 2026-04-20 07:37 | 53.35656 | -2.26636 | 261 ft | 16 kts | 169° |
| 2026-04-20 07:37 | 53.35556 | -2.26662 | 256 ft | 14 kts | 217° |
| 2026-04-20 07:37 | 53.35492 | -2.26787 | 254 ft | 14 kts | 231° |
| 2026-04-20 07:37 | 53.35423 | -2.26929 | 251 ft | 17 kts | 231° |
| 2026-04-20 07:38 | 53.35344 | -2.27094 | 248 ft | 20 kts | 231° |
| 2026-04-20 07:38 | 53.35265 | -2.27211 | 245 ft | 14 kts | 196° |
| 2026-04-20 07:38 | 53.35167 | -2.27254 | 243 ft | 15 kts | 210° |
| 2026-04-20 07:38 | 53.35093 | -2.27392 | 241 ft | 16 kts | 231° |
| 2026-04-20 07:39 | 53.35021 | -2.27479 | 239 ft | 13 kts | 179° |
| 2026-04-20 07:39 | 53.34944 | -2.27466 | 236 ft | 9 kts | 197° |
| 2026-04-20 07:39 | 53.34890 | -2.27566 | 232 ft | 20 kts | 231° |
| 2026-04-20 07:39 | 53.34648 | -2.28068 | 229 ft | 92 kts | 231° |
| 2026-04-20 07:40 | 53.34091 | -2.29220 | 216 ft | 156 kts | 230° |
| 2026-04-20 07:40 | 53.33337 | -2.30727 | 649 ft | 171 kts | 229° |
| 2026-04-20 07:40 | 53.32574 | -2.32238 | 1609 ft | 168 kts | 229° |
| 2026-04-20 07:40 | 53.31972 | -2.33964 | 2258 ft | 184 kts | 256° |
| 2026-04-20 07:41 | 53.32024 | -2.36231 | 2581 ft | 211 kts | 282° |
| 2026-04-20 07:41 | 53.32389 | -2.38756 | 2888 ft | 231 kts | 282° |
| 2026-04-20 07:41 | 53.32716 | -2.41453 | 3454 ft | 240 kts | 277° |
| 2026-04-20 07:41 | 53.32547 | -2.44296 | 3854 ft | 259 kts | 252° |
| 2026-04-20 07:42 | 53.31944 | -2.47176 | 4607 ft | 265 kts | 250° |
| 2026-04-20 07:42 | 53.31335 | -2.50112 | 5426 ft | 268 kts | 252° |
| 2026-04-20 07:42 | 53.30783 | -2.53094 | 6360 ft | 268 kts | 253° |
| 2026-04-20 07:42 | 53.30241 | -2.56095 | 7224 ft | 271 kts | 253° |
| 2026-04-20 07:43 | 53.29681 | -2.59121 | 8059 ft | 274 kts | 250° |
| 2026-04-20 07:43 | 53.28932 | -2.62029 | 8874 ft | 277 kts | 246° |
| 2026-04-20 07:43 | 53.27916 | -2.64842 | 9677 ft | 284 kts | 227° |
| 2026-04-20 07:43 | 53.26367 | -2.66876 | 10460 ft | 290 kts | 217° |
| 2026-04-20 07:44 | 53.24650 | -2.68830 | 10836 ft | 309 kts | 216° |
| 2026-04-20 07:44 | 53.22798 | -2.70930 | 11037 ft | 333 kts | 216° |
| 2026-04-20 07:44 | 53.20847 | -2.73154 | 11496 ft | 345 kts | 217° |
| 2026-04-20 07:44 | 53.18851 | -2.75437 | 12184 ft | 350 kts | 217° |
| 2026-04-20 07:45 | 53.16830 | -2.77755 | 12960 ft | 353 kts | 217° |
| 2026-04-20 07:45 | 53.14818 | -2.80070 | 13689 ft | 357 kts | 217° |
| 2026-04-20 07:45 | 53.12753 | -2.82445 | 14378 ft | 362 kts | 218° |
| 2026-04-20 07:45 | 53.10668 | -2.84841 | 15051 ft | 365 kts | 218° |
| 2026-04-20 07:46 | 53.08429 | -2.86883 | 15705 ft | 373 kts | 202° |
| 2026-04-20 07:46 | 53.05854 | -2.87719 | 16390 ft | 381 kts | 184° |
| 2026-04-20 07:46 | 53.03226 | -2.87313 | 17044 ft | 387 kts | 172° |
| 2026-04-20 07:46 | 53.00547 | -2.86544 | 17649 ft | 392 kts | 172° |
| 2026-04-20 07:47 | 52.97849 | -2.85732 | 18272 ft | 396 kts | 172° |
| 2026-04-20 07:47 | 52.95107 | -2.84925 | 18869 ft | 400 kts | 172° |
| 2026-04-20 07:47 | 52.92376 | -2.84150 | 19400 ft | 404 kts | 173° |
| 2026-04-20 07:47 | 52.89574 | -2.83379 | 19928 ft | 408 kts | 174° |
| 2026-04-20 07:48 | 52.86761 | -2.82618 | 20438 ft | 413 kts | 174° |
| 2026-04-20 07:48 | 52.83909 | -2.81851 | 20962 ft | 417 kts | 174° |
| 2026-04-20 07:48 | 52.81030 | -2.81078 | 21478 ft | 420 kts | 174° |
| 2026-04-20 07:48 | 52.78158 | -2.80307 | 21974 ft | 425 kts | 175° |
| 2026-04-20 07:49 | 52.75226 | -2.79520 | 22468 ft | 429 kts | 175° |
| 2026-04-20 07:49 | 52.72264 | -2.78726 | 22939 ft | 433 kts | 175° |
| 2026-04-20 07:49 | 52.69264 | -2.77924 | 23417 ft | 437 kts | 175° |
| 2026-04-20 07:49 | 52.66251 | -2.77118 | 23885 ft | 441 kts | 175° |
| 2026-04-20 07:50 | 52.63212 | -2.76307 | 24280 ft | 444 kts | 176° |
| 2026-04-20 07:50 | 52.60142 | -2.75774 | 24690 ft | 441 kts | 185° |
| 2026-04-20 07:50 | 52.57086 | -2.75997 | 25111 ft | 438 kts | 191° |
| 2026-04-20 07:50 | 52.54043 | -2.76363 | 25519 ft | 440 kts | 191° |
| 2026-04-20 07:51 | 52.50994 | -2.76681 | 25906 ft | 443 kts | 190° |
| 2026-04-20 07:51 | 52.47899 | -2.76963 | 26295 ft | 446 kts | 190° |
| 2026-04-20 07:51 | 52.44783 | -2.77232 | 26694 ft | 448 kts | 190° |
| 2026-04-20 07:51 | 52.41698 | -2.77493 | 27070 ft | 450 kts | 190° |
| 2026-04-20 07:52 | 52.38550 | -2.77759 | 27436 ft | 452 kts | 191° |
| 2026-04-20 07:52 | 52.35398 | -2.78027 | 27791 ft | 454 kts | 191° |
| 2026-04-20 07:52 | 52.32226 | -2.78298 | 28147 ft | 457 kts | 191° |
| 2026-04-20 07:52 | 52.29082 | -2.78565 | 28496 ft | 458 kts | 191° |
| 2026-04-20 07:53 | 52.25880 | -2.78840 | 28841 ft | 460 kts | 191° |
| 2026-04-20 07:53 | 52.22677 | -2.79115 | 29166 ft | 462 kts | 191° |
| 2026-04-20 07:53 | 52.19451 | -2.79392 | 29480 ft | 465 kts | 191° |
| 2026-04-20 07:53 | 52.16206 | -2.79669 | 29822 ft | 466 kts | 191° |
| 2026-04-20 07:54 | 52.12954 | -2.79945 | 30142 ft | 468 kts | 191° |
| 2026-04-20 07:54 | 52.09705 | -2.80222 | 30410 ft | 470 kts | 191° |
| 2026-04-20 07:54 | 52.06434 | -2.80499 | 30657 ft | 471 kts | 191° |
| 2026-04-20 07:54 | 52.03190 | -2.80775 | 30926 ft | 472 kts | 191° |
| 2026-04-20 07:55 | 51.99916 | -2.81052 | 31249 ft | 471 kts | 190° |
| 2026-04-20 07:55 | 51.96640 | -2.81328 | 31564 ft | 471 kts | 190° |
| 2026-04-20 07:55 | 51.93356 | -2.81606 | 31874 ft | 471 kts | 190° |
| 2026-04-20 07:55 | 51.90074 | -2.81884 | 32156 ft | 472 kts | 190° |
| 2026-04-20 07:56 | 51.86796 | -2.82161 | 32453 ft | 472 kts | 190° |
| 2026-04-20 07:56 | 51.83533 | -2.82572 | 32767 ft | 468 kts | 193° |
| 2026-04-20 07:56 | 51.80302 | -2.83221 | 33059 ft | 466 kts | 195° |
| 2026-04-20 07:56 | 51.77123 | -2.83948 | 33345 ft | 466 kts | 195° |
| 2026-04-20 07:57 | 51.73908 | -2.84698 | 33666 ft | 465 kts | 195° |
| 2026-04-20 07:57 | 51.70695 | -2.85429 | 33954 ft | 465 kts | 194° |
| 2026-04-20 07:57 | 51.67486 | -2.86134 | 34245 ft | 465 kts | 194° |
| 2026-04-20 07:57 | 51.64321 | -2.86813 | 34504 ft | 464 kts | 194° |
| 2026-04-20 07:58 | 51.61113 | -2.87494 | 34765 ft | 463 kts | 193° |
| 2026-04-20 07:58 | 51.57920 | -2.88170 | 35028 ft | 462 kts | 193° |
| 2026-04-20 07:58 | 51.54733 | -2.88845 | 35263 ft | 461 kts | 193° |
| 2026-04-20 07:58 | 51.51544 | -2.89521 | 35464 ft | 461 kts | 193° |
| 2026-04-20 07:59 | 51.48369 | -2.90192 | 35702 ft | 460 kts | 193° |
| 2026-04-20 07:59 | 51.45220 | -2.90858 | 35913 ft | 460 kts | 193° |
| 2026-04-20 07:59 | 51.42047 | -2.91528 | 36130 ft | 460 kts | 192° |
| 2026-04-20 07:59 | 51.38877 | -2.92196 | 36334 ft | 459 kts | 192° |
| 2026-04-20 08:00 | 51.35708 | -2.92863 | 36560 ft | 458 kts | 192° |
| 2026-04-20 08:00 | 51.32548 | -2.93527 | 36761 ft | 458 kts | 192° |
| 2026-04-20 08:00 | 51.29380 | -2.94193 | 36938 ft | 459 kts | 192° |
| 2026-04-20 08:00 | 51.26214 | -2.94857 | 37137 ft | 458 kts | 192° |
| 2026-04-20 08:01 | 51.23052 | -2.95519 | 37293 ft | 459 kts | 192° |
| 2026-04-20 08:01 | 51.19876 | -2.96185 | 37282 ft | 461 kts | 191° |
| 2026-04-20 08:01 | 51.13513 | -2.97512 | 37290 ft | 458 kts | 191° |
| 2026-04-20 08:02 | 51.07235 | -2.98816 | 37290 ft | 455 kts | 191° |
| 2026-04-20 08:02 | 51.00964 | -3.00116 | 37285 ft | 452 kts | 191° |
| 2026-04-20 08:03 | 50.94761 | -3.01401 | 37289 ft | 450 kts | 191° |
| 2026-04-20 08:03 | 50.88533 | -3.02688 | 37300 ft | 450 kts | 191° |
| 2026-04-20 08:04 | 50.82305 | -3.03971 | 37281 ft | 451 kts | 191° |
| 2026-04-20 08:04 | 50.76099 | -3.05245 | 37271 ft | 453 kts | 191° |
| 2026-04-20 08:05 | 50.69829 | -3.06529 | 37273 ft | 454 kts | 191° |
| 2026-04-20 08:05 | 50.63585 | -3.07804 | 37275 ft | 455 kts | 191° |
| 2026-04-20 08:06 | 50.57271 | -3.09090 | 37271 ft | 456 kts | 191° |
| 2026-04-20 08:06 | 50.50995 | -3.10365 | 37274 ft | 457 kts | 191° |
| 2026-04-20 08:07 | 50.44657 | -3.11649 | 37268 ft | 458 kts | 191° |
| 2026-04-20 08:07 | 50.38330 | -3.12972 | 37261 ft | 457 kts | 194° |
| 2026-04-20 08:08 | 50.32335 | -3.16008 | 37274 ft | 450 kts | 206° |
| 2026-04-20 08:08 | 50.26581 | -3.19768 | 37263 ft | 450 kts | 206° |
| 2026-04-20 08:09 | 50.20774 | -3.23521 | 37260 ft | 450 kts | 206° |
| 2026-04-20 08:09 | 50.15011 | -3.27175 | 37256 ft | 449 kts | 205° |
| 2026-04-20 08:10 | 50.09210 | -3.30824 | 37255 ft | 448 kts | 205° |
| 2026-04-20 08:10 | 50.03419 | -3.34455 | 37249 ft | 447 kts | 205° |
| 2026-04-20 08:11 | 49.97691 | -3.38040 | 37247 ft | 446 kts | 205° |
| 2026-04-20 08:11 | 49.91939 | -3.41633 | 37243 ft | 445 kts | 205° |
| 2026-04-20 08:12 | 49.87168 | -3.44606 | 37243 ft | 444 kts | 205° |
| 2026-04-20 08:12 | 49.81437 | -3.48170 | 37242 ft | 443 kts | 206° |
| 2026-04-20 08:13 | 49.75716 | -3.51685 | 37238 ft | 443 kts | 202° |
| 2026-04-20 08:13 | 49.69645 | -3.53406 | 37237 ft | 450 kts | 186° |
| 2026-04-20 08:14 | 49.63375 | -3.53718 | 37226 ft | 450 kts | 185° |
| 2026-04-20 08:14 | 49.57146 | -3.53980 | 37228 ft | 450 kts | 186° |
| 2026-04-20 08:15 | 49.50891 | -3.54300 | 37227 ft | 449 kts | 186° |
| 2026-04-20 08:15 | 49.44631 | -3.54659 | 37225 ft | 449 kts | 186° |
| 2026-04-20 08:16 | 49.38413 | -3.55024 | 37226 ft | 449 kts | 186° |
| 2026-04-20 08:16 | 49.32164 | -3.55391 | 37230 ft | 449 kts | 186° |
| 2026-04-20 08:17 | 49.25916 | -3.55755 | 37222 ft | 449 kts | 186° |
| 2026-04-20 08:17 | 49.19668 | -3.56118 | 37214 ft | 449 kts | 186° |
| 2026-04-20 08:18 | 49.13457 | -3.56477 | 37206 ft | 449 kts | 186° |
| 2026-04-20 08:18 | 49.07213 | -3.56837 | 37205 ft | 448 kts | 186° |
| 2026-04-20 08:19 | 49.00965 | -3.57197 | 37204 ft | 448 kts | 186° |
| 2026-04-20 08:19 | 48.94763 | -3.57553 | 37203 ft | 448 kts | 186° |
| 2026-04-20 08:20 | 48.88534 | -3.57909 | 37196 ft | 447 kts | 186° |
| 2026-04-20 08:20 | 48.82308 | -3.58265 | 37184 ft | 447 kts | 186° |
| 2026-04-20 08:21 | 48.76091 | -3.58620 | 37177 ft | 446 kts | 187° |
| 2026-04-20 08:21 | 48.69880 | -3.58973 | 37166 ft | 446 kts | 186° |
| 2026-04-20 08:22 | 48.63703 | -3.59323 | 37169 ft | 446 kts | 187° |
| 2026-04-20 08:22 | 48.57484 | -3.59675 | 37166 ft | 446 kts | 187° |
| 2026-04-20 08:23 | 48.51267 | -3.60026 | 37164 ft | 446 kts | 187° |
| 2026-04-20 08:23 | 48.45079 | -3.60375 | 37169 ft | 447 kts | 187° |
| 2026-04-20 08:24 | 48.38873 | -3.60723 | 37168 ft | 447 kts | 187° |
| 2026-04-20 08:24 | 48.32651 | -3.61072 | 37171 ft | 447 kts | 187° |
| 2026-04-20 08:25 | 48.26425 | -3.61420 | 37175 ft | 447 kts | 187° |
| 2026-04-20 08:25 | 48.20244 | -3.61764 | 37175 ft | 447 kts | 187° |
| 2026-04-20 08:26 | 48.14020 | -3.62110 | 37168 ft | 447 kts | 187° |
| 2026-04-20 08:26 | 48.07792 | -3.62456 | 37171 ft | 446 kts | 187° |
| 2026-04-20 08:27 | 48.01608 | -3.62798 | 37161 ft | 446 kts | 187° |
| 2026-04-20 08:27 | 47.95406 | -3.63140 | 37162 ft | 445 kts | 187° |
| 2026-04-20 08:28 | 47.89238 | -3.63480 | 37153 ft | 444 kts | 187° |
| 2026-04-20 08:28 | 47.83052 | -3.63819 | 37153 ft | 444 kts | 187° |
| 2026-04-20 08:29 | 47.76912 | -3.64156 | 37156 ft | 443 kts | 187° |
| 2026-04-20 08:29 | 47.70752 | -3.64493 | 37150 ft | 442 kts | 187° |
| 2026-04-20 08:30 | 47.64606 | -3.64828 | 37158 ft | 441 kts | 187° |
| 2026-04-20 08:30 | 47.58507 | -3.65160 | 37148 ft | 440 kts | 187° |
| 2026-04-20 08:31 | 47.52380 | -3.65493 | 37150 ft | 440 kts | 187° |
| 2026-04-20 08:31 | 47.46262 | -3.65825 | 37146 ft | 439 kts | 187° |
| 2026-04-20 08:32 | 47.40181 | -3.66154 | 37143 ft | 439 kts | 187° |
| 2026-04-20 08:32 | 47.34065 | -3.66484 | 37137 ft | 439 kts | 187° |
| 2026-04-20 08:33 | 47.24933 | -3.66975 | 37137 ft | 438 kts | 187° |
| 2026-04-20 08:34 | 47.18829 | -3.67302 | 37133 ft | 438 kts | 187° |
| 2026-04-20 08:34 | 47.12755 | -3.67628 | 37130 ft | 438 kts | 187° |
| 2026-04-20 08:35 | 47.06654 | -3.67953 | 37128 ft | 438 kts | 187° |
| 2026-04-20 08:35 | 47.00582 | -3.68384 | 37120 ft | 437 kts | 189° |
| 2026-04-20 08:36 | 46.94514 | -3.69131 | 37127 ft | 436 kts | 190° |
| 2026-04-20 08:36 | 46.88499 | -3.69908 | 37121 ft | 437 kts | 190° |
| 2026-04-20 08:37 | 46.82419 | -3.70655 | 37114 ft | 437 kts | 190° |
| 2026-04-20 08:37 | 46.76394 | -3.71370 | 37112 ft | 437 kts | 190° |
| 2026-04-20 08:38 | 46.70320 | -3.72082 | 37110 ft | 437 kts | 190° |
| 2026-04-20 08:38 | 46.64255 | -3.72791 | 37113 ft | 437 kts | 190° |
| 2026-04-20 08:39 | 46.58175 | -3.73501 | 37103 ft | 437 kts | 190° |
| 2026-04-20 08:39 | 46.52143 | -3.74204 | 37104 ft | 437 kts | 190° |
| 2026-04-20 08:40 | 46.46060 | -3.74911 | 37096 ft | 437 kts | 190° |
| 2026-04-20 08:40 | 46.39981 | -3.75617 | 37098 ft | 437 kts | 190° |
| 2026-04-20 08:41 | 46.33940 | -3.76316 | 37096 ft | 437 kts | 190° |
| 2026-04-20 08:41 | 46.27855 | -3.77019 | 37090 ft | 437 kts | 189° |
| 2026-04-20 08:42 | 46.21785 | -3.77719 | 37087 ft | 437 kts | 189° |
| 2026-04-20 08:42 | 46.15715 | -3.78417 | 37086 ft | 437 kts | 189° |
| 2026-04-20 08:43 | 46.09668 | -3.79110 | 37081 ft | 437 kts | 189° |
| 2026-04-20 08:43 | 46.03597 | -3.79806 | 37083 ft | 437 kts | 189° |
| 2026-04-20 08:44 | 45.97557 | -3.80496 | 37070 ft | 437 kts | 189° |
| 2026-04-20 08:44 | 45.91486 | -3.81188 | 37074 ft | 436 kts | 189° |
| 2026-04-20 08:45 | 45.85428 | -3.81877 | 37079 ft | 436 kts | 189° |
| 2026-04-20 08:45 | 45.79413 | -3.82559 | 37071 ft | 436 kts | 189° |
| 2026-04-20 08:46 | 45.73350 | -3.83246 | 37059 ft | 436 kts | 189° |
| 2026-04-20 08:46 | 45.67303 | -3.83930 | 37063 ft | 435 kts | 189° |
| 2026-04-20 08:47 | 45.61250 | -3.84612 | 37061 ft | 435 kts | 189° |
| 2026-04-20 08:47 | 45.55228 | -3.85290 | 37060 ft | 435 kts | 189° |
| 2026-04-20 08:48 | 45.49201 | -3.85967 | 37055 ft | 435 kts | 189° |
| 2026-04-20 08:48 | 45.43151 | -3.86644 | 37055 ft | 435 kts | 189° |
| 2026-04-20 08:49 | 45.37128 | -3.87318 | 37051 ft | 435 kts | 189° |
| 2026-04-20 08:49 | 45.31081 | -3.87992 | 37052 ft | 435 kts | 189° |
| 2026-04-20 08:50 | 45.25031 | -3.88666 | 37047 ft | 436 kts | 189° |
| 2026-04-20 08:50 | 45.19012 | -3.89334 | 37046 ft | 436 kts | 189° |
| 2026-04-20 08:51 | 45.12954 | -3.90006 | 37043 ft | 436 kts | 189° |
| 2026-04-20 08:51 | 45.06894 | -3.90676 | 37042 ft | 436 kts | 189° |
| 2026-04-20 08:52 | 45.00863 | -3.91342 | 37037 ft | 436 kts | 189° |
| 2026-04-20 08:52 | 44.94793 | -3.92010 | 37035 ft | 436 kts | 189° |
| 2026-04-20 08:53 | 44.88738 | -3.92676 | 37037 ft | 436 kts | 189° |
| 2026-04-20 08:53 | 44.82715 | -3.93337 | 37037 ft | 436 kts | 188° |
| 2026-04-20 08:54 | 44.76642 | -3.94001 | 37033 ft | 436 kts | 189° |
| 2026-04-20 08:54 | 44.70585 | -3.94663 | 37030 ft | 436 kts | 188° |
| 2026-04-20 08:55 | 44.64558 | -3.95320 | 37030 ft | 436 kts | 188° |
| 2026-04-20 08:55 | 44.58492 | -3.95979 | 37030 ft | 436 kts | 188° |
| 2026-04-20 08:56 | 44.52429 | -3.96638 | 37029 ft | 436 kts | 188° |
| 2026-04-20 08:56 | 44.46405 | -3.97290 | 37025 ft | 436 kts | 188° |
| 2026-04-20 08:57 | 44.40341 | -3.97946 | 37024 ft | 436 kts | 188° |
| 2026-04-20 08:57 | 44.34308 | -3.98597 | 37021 ft | 436 kts | 188° |
| 2026-04-20 08:58 | 44.28208 | -3.98478 | 37026 ft | 440 kts | 180° |
| 2026-04-20 08:58 | 44.22101 | -3.97785 | 37018 ft | 440 kts | 179° |
| 2026-04-20 08:59 | 44.15983 | -3.97109 | 37013 ft | 440 kts | 179° |
| 2026-04-20 08:59 | 44.09922 | -3.96498 | 37012 ft | 439 kts | 180° |
| 2026-04-20 09:00 | 44.03808 | -3.95904 | 37013 ft | 439 kts | 180° |
| 2026-04-20 09:00 | 43.98743 | -3.95414 | 37012 ft | 439 kts | 180° |
| 2026-04-20 09:01 | 43.92623 | -3.94821 | 37006 ft | 439 kts | 180° |
| 2026-04-20 09:01 | 43.86555 | -3.94233 | 37003 ft | 439 kts | 180° |
| 2026-04-20 09:02 | 43.80466 | -3.93645 | 36999 ft | 438 kts | 180° |
| 2026-04-20 09:02 | 43.74371 | -3.93057 | 37007 ft | 438 kts | 180° |
| 2026-04-20 09:03 | 43.68321 | -3.92475 | 36997 ft | 437 kts | 180° |
| 2026-04-20 09:03 | 43.62230 | -3.91891 | 37008 ft | 437 kts | 180° |
| 2026-04-20 09:04 | 43.56155 | -3.91309 | 36986 ft | 437 kts | 180° |
| 2026-04-20 09:04 | 43.50117 | -3.90732 | 36988 ft | 437 kts | 180° |
| 2026-04-20 09:05 | 43.44039 | -3.90307 | 36981 ft | 433 kts | 187° |
| 2026-04-20 09:05 | 43.38064 | -3.91143 | 36993 ft | 431 kts | 190° |
| 2026-04-20 09:06 | 43.32098 | -3.92114 | 36994 ft | 431 kts | 190° |
| 2026-04-20 09:06 | 43.26159 | -3.93031 | 36997 ft | 432 kts | 189° |
| 2026-04-20 09:07 | 43.20178 | -3.93919 | 36995 ft | 432 kts | 189° |
| 2026-04-20 09:07 | 43.14195 | -3.94798 | 36998 ft | 431 kts | 189° |
| 2026-04-20 09:08 | 43.08260 | -3.95670 | 37004 ft | 431 kts | 189° |
| 2026-04-20 09:08 | 43.02278 | -3.96550 | 36998 ft | 431 kts | 189° |
| 2026-04-20 09:09 | 42.96348 | -3.97419 | 37009 ft | 431 kts | 189° |
| 2026-04-20 09:09 | 42.90382 | -3.98291 | 37008 ft | 431 kts | 189° |
| 2026-04-20 09:10 | 42.84405 | -3.99163 | 37014 ft | 431 kts | 189° |
| 2026-04-20 09:10 | 42.78444 | -4.00031 | 37011 ft | 430 kts | 189° |
| 2026-04-20 09:11 | 42.72520 | -4.00892 | 37021 ft | 430 kts | 189° |
| 2026-04-20 09:11 | 42.66549 | -4.01759 | 37017 ft | 430 kts | 189° |
| 2026-04-20 09:12 | 42.60626 | -4.02617 | 37025 ft | 429 kts | 189° |
| 2026-04-20 09:12 | 42.54673 | -4.03477 | 37022 ft | 429 kts | 189° |
| 2026-04-20 09:13 | 42.48754 | -4.04331 | 37029 ft | 429 kts | 189° |
| 2026-04-20 09:13 | 42.42807 | -4.05187 | 37032 ft | 428 kts | 189° |
| 2026-04-20 09:14 | 42.36914 | -4.06034 | 37042 ft | 428 kts | 189° |
| 2026-04-20 09:14 | 42.30975 | -4.06886 | 37041 ft | 428 kts | 189° |
| 2026-04-20 09:15 | 42.25085 | -4.07730 | 37034 ft | 428 kts | 189° |
| 2026-04-20 09:15 | 42.19138 | -4.08580 | 37033 ft | 428 kts | 189° |
| 2026-04-20 09:16 | 42.13229 | -4.09423 | 37041 ft | 427 kts | 189° |
| 2026-04-20 09:16 | 42.07302 | -4.10268 | 37040 ft | 427 kts | 189° |
| 2026-04-20 09:17 | 42.01420 | -4.11094 | 37044 ft | 427 kts | 189° |
| 2026-04-20 09:17 | 41.95459 | -4.11787 | 37038 ft | 428 kts | 188° |
| 2026-04-20 09:18 | 41.89541 | -4.12436 | 37043 ft | 428 kts | 188° |
| 2026-04-20 09:18 | 41.83592 | -4.13101 | 37045 ft | 428 kts | 188° |
| 2026-04-20 09:19 | 41.77676 | -4.13772 | 37051 ft | 429 kts | 188° |
| 2026-04-20 09:19 | 41.71735 | -4.14446 | 37047 ft | 429 kts | 188° |
| 2026-04-20 09:20 | 41.65790 | -4.15120 | 37054 ft | 428 kts | 188° |
| 2026-04-20 09:20 | 41.59824 | -4.15795 | 37043 ft | 428 kts | 188° |
| 2026-04-20 09:21 | 41.53914 | -4.16462 | 37051 ft | 428 kts | 188° |
| 2026-04-20 09:21 | 41.47971 | -4.17131 | 37049 ft | 428 kts | 188° |
| 2026-04-20 09:22 | 41.42030 | -4.17799 | 37051 ft | 427 kts | 188° |
| 2026-04-20 09:22 | 41.36131 | -4.18461 | 37053 ft | 427 kts | 188° |
| 2026-04-20 09:23 | 41.30199 | -4.19127 | 37053 ft | 427 kts | 188° |
| 2026-04-20 09:23 | 41.24283 | -4.19789 | 37057 ft | 426 kts | 188° |
| 2026-04-20 09:24 | 41.18406 | -4.20445 | 37056 ft | 426 kts | 188° |
| 2026-04-20 09:24 | 41.12485 | -4.21105 | 37059 ft | 425 kts | 188° |
| 2026-04-20 09:25 | 41.06612 | -4.21759 | 37053 ft | 425 kts | 188° |
| 2026-04-20 09:25 | 41.00715 | -4.22414 | 37054 ft | 425 kts | 188° |
| 2026-04-20 09:26 | 40.94802 | -4.23069 | 37049 ft | 425 kts | 188° |
| 2026-04-20 09:26 | 40.88939 | -4.23716 | 37052 ft | 424 kts | 188° |
| 2026-04-20 09:27 | 40.83049 | -4.24366 | 37061 ft | 424 kts | 188° |
| 2026-04-20 09:27 | 40.77158 | -4.25015 | 37045 ft | 424 kts | 188° |
| 2026-04-20 09:28 | 40.71275 | -4.25662 | 37050 ft | 424 kts | 188° |
| 2026-04-20 09:28 | 40.65404 | -4.26306 | 37045 ft | 425 kts | 188° |
| 2026-04-20 09:29 | 40.59492 | -4.26954 | 37050 ft | 425 kts | 188° |
| 2026-04-20 09:29 | 40.53620 | -4.27596 | 37025 ft | 425 kts | 188° |
| 2026-04-20 09:30 | 40.47715 | -4.28241 | 37028 ft | 425 kts | 188° |
| 2026-04-20 09:30 | 40.41839 | -4.28881 | 37041 ft | 426 kts | 188° |
| 2026-04-20 09:31 | 40.35907 | -4.29527 | 37028 ft | 426 kts | 188° |
| 2026-04-20 09:31 | 40.29986 | -4.30170 | 37036 ft | 426 kts | 188° |
| 2026-04-20 09:32 | 40.24101 | -4.30808 | 37029 ft | 425 kts | 188° |
| 2026-04-20 09:32 | 40.18202 | -4.31446 | 37032 ft | 424 kts | 188° |
| 2026-04-20 09:33 | 40.12345 | -4.32079 | 37022 ft | 424 kts | 188° |
| 2026-04-20 09:33 | 40.06493 | -4.32711 | 37022 ft | 423 kts | 188° |
| 2026-04-20 09:34 | 40.00622 | -4.33343 | 37019 ft | 422 kts | 188° |
| 2026-04-20 09:34 | 39.91899 | -4.34740 | 37021 ft | 419 kts | 193° |
| 2026-04-20 09:35 | 39.86177 | -4.36044 | 37022 ft | 419 kts | 193° |
| 2026-04-20 09:35 | 39.80411 | -4.37312 | 37019 ft | 419 kts | 192° |
| 2026-04-20 09:36 | 39.74684 | -4.38542 | 37021 ft | 419 kts | 192° |
| 2026-04-20 09:36 | 39.68930 | -4.39771 | 37027 ft | 419 kts | 192° |
| 2026-04-20 09:37 | 39.63206 | -4.40992 | 37018 ft | 419 kts | 192° |
| 2026-04-20 09:37 | 39.57428 | -4.42223 | 37026 ft | 420 kts | 192° |
| 2026-04-20 09:38 | 39.51650 | -4.43452 | 37031 ft | 420 kts | 192° |
| 2026-04-20 09:38 | 39.45905 | -4.44672 | 37019 ft | 421 kts | 192° |
| 2026-04-20 09:39 | 39.40116 | -4.45900 | 37021 ft | 421 kts | 192° |
| 2026-04-20 09:39 | 39.34320 | -4.47127 | 37027 ft | 422 kts | 192° |
| 2026-04-20 09:40 | 39.28522 | -4.48353 | 37033 ft | 422 kts | 192° |
| 2026-04-20 09:40 | 39.22824 | -4.49935 | 37035 ft | 418 kts | 202° |
| 2026-04-20 09:41 | 39.17694 | -4.53376 | 37038 ft | 415 kts | 215° |
| 2026-04-20 09:41 | 39.12914 | -4.57543 | 37034 ft | 415 kts | 215° |
| 2026-04-20 09:42 | 39.08107 | -4.61688 | 37030 ft | 415 kts | 215° |
| 2026-04-20 09:42 | 39.03304 | -4.65777 | 37026 ft | 415 kts | 214° |
| 2026-04-20 09:43 | 38.98304 | -4.69516 | 37012 ft | 417 kts | 203° |
| 2026-04-20 09:43 | 38.92905 | -4.72133 | 37018 ft | 417 kts | 202° |
| 2026-04-20 09:44 | 38.87452 | -4.74710 | 37023 ft | 416 kts | 202° |
| 2026-04-20 09:44 | 38.82049 | -4.77291 | 37019 ft | 416 kts | 202° |
| 2026-04-20 09:45 | 38.76625 | -4.79902 | 37014 ft | 416 kts | 202° |
| 2026-04-20 09:45 | 38.71203 | -4.82517 | 37019 ft | 416 kts | 202° |
| 2026-04-20 09:46 | 38.65808 | -4.85117 | 37021 ft | 416 kts | 202° |
| 2026-04-20 09:46 | 38.60388 | -4.87724 | 37017 ft | 416 kts | 202° |
| 2026-04-20 09:47 | 38.54961 | -4.90330 | 37021 ft | 416 kts | 202° |
| 2026-04-20 09:47 | 38.50450 | -4.92493 | 37020 ft | 416 kts | 202° |
| 2026-04-20 09:48 | 38.44135 | -4.95515 | 37009 ft | 416 kts | 202° |
| 2026-04-20 09:48 | 38.39615 | -4.97675 | 37018 ft | 416 kts | 202° |
| 2026-04-20 09:49 | 38.34190 | -5.00264 | 37014 ft | 416 kts | 202° |
| 2026-04-20 09:49 | 38.28760 | -5.02851 | 37010 ft | 416 kts | 202° |
| 2026-04-20 09:50 | 38.23332 | -5.05433 | 37013 ft | 416 kts | 202° |
| 2026-04-20 09:50 | 38.17932 | -5.07998 | 37013 ft | 416 kts | 202° |
| 2026-04-20 09:51 | 38.12509 | -5.10569 | 37004 ft | 416 kts | 202° |
| 2026-04-20 09:51 | 38.07104 | -5.13128 | 37016 ft | 416 kts | 202° |
| 2026-04-20 09:52 | 38.01663 | -5.15699 | 37013 ft | 416 kts | 202° |
| 2026-04-20 09:52 | 37.96224 | -5.18266 | 37013 ft | 416 kts | 202° |
| 2026-04-20 09:53 | 37.90820 | -5.20812 | 37004 ft | 416 kts | 202° |
| 2026-04-20 09:53 | 37.85381 | -5.23371 | 37009 ft | 416 kts | 202° |
| 2026-04-20 09:54 | 37.79975 | -5.25910 | 37015 ft | 416 kts | 202° |
| 2026-04-20 09:54 | 37.74556 | -5.28450 | 36992 ft | 410 kts | 202° |
| 2026-04-20 09:55 | 37.69256 | -5.30931 | 36993 ft | 406 kts | 202° |
| 2026-04-20 09:55 | 37.63956 | -5.33409 | 36620 ft | 403 kts | 202° |
| 2026-04-20 09:56 | 37.61346 | -5.34628 | 36236 ft | 398 kts | 202° |
| 2026-04-20 09:56 | 37.58767 | -5.35831 | 35911 ft | 392 kts | 202° |
| 2026-04-20 09:56 | 37.56211 | -5.37022 | 35499 ft | 390 kts | 202° |
| 2026-04-20 09:56 | 37.53701 | -5.38192 | 35129 ft | 386 kts | 202° |
| 2026-04-20 09:57 | 37.51182 | -5.39365 | 34757 ft | 383 kts | 202° |
| 2026-04-20 09:57 | 37.48683 | -5.40527 | 34383 ft | 380 kts | 202° |
| 2026-04-20 09:57 | 37.46209 | -5.41678 | 34018 ft | 378 kts | 201° |
| 2026-04-20 09:57 | 37.43737 | -5.42827 | 33594 ft | 375 kts | 201° |
| 2026-04-20 09:58 | 37.41329 | -5.43945 | 33207 ft | 372 kts | 201° |
| 2026-04-20 09:58 | 37.38909 | -5.45067 | 32847 ft | 369 kts | 201° |
| 2026-04-20 09:58 | 37.36509 | -5.46180 | 32472 ft | 366 kts | 202° |
| 2026-04-20 09:58 | 37.34121 | -5.47287 | 32101 ft | 364 kts | 202° |
| 2026-04-20 09:59 | 37.31748 | -5.48386 | 31757 ft | 361 kts | 202° |
| 2026-04-20 09:59 | 37.29393 | -5.49475 | 31394 ft | 359 kts | 202° |
| 2026-04-20 09:59 | 37.27047 | -5.50560 | 31043 ft | 357 kts | 202° |
| 2026-04-20 09:59 | 37.24718 | -5.51636 | 30702 ft | 355 kts | 202° |
| 2026-04-20 10:00 | 37.22424 | -5.52695 | 30357 ft | 354 kts | 202° |
| 2026-04-20 10:00 | 37.20113 | -5.53762 | 30002 ft | 352 kts | 202° |
| 2026-04-20 10:00 | 37.17814 | -5.54823 | 29599 ft | 351 kts | 202° |
| 2026-04-20 10:00 | 37.15529 | -5.55876 | 29222 ft | 348 kts | 202° |
| 2026-04-20 10:01 | 37.13261 | -5.56921 | 28871 ft | 345 kts | 202° |
| 2026-04-20 10:01 | 37.11011 | -5.57957 | 28506 ft | 343 kts | 202° |
| 2026-04-20 10:01 | 37.08779 | -5.58983 | 28148 ft | 340 kts | 201° |
| 2026-04-20 10:01 | 37.06563 | -5.60002 | 27798 ft | 338 kts | 201° |
| 2026-04-20 10:02 | 37.04384 | -5.61003 | 27451 ft | 336 kts | 201° |
| 2026-04-20 10:02 | 37.02194 | -5.62009 | 27103 ft | 335 kts | 201° |
| 2026-04-20 10:02 | 37.00000 | -5.63015 | 26757 ft | 334 kts | 201° |
| 2026-04-20 10:02 | 36.97811 | -5.64020 | 26424 ft | 335 kts | 201° |
| 2026-04-20 10:03 | 36.95599 | -5.65034 | 26082 ft | 342 kts | 201° |
| 2026-04-20 10:03 | 36.93338 | -5.66071 | 25727 ft | 348 kts | 201° |
| 2026-04-20 10:03 | 36.91086 | -5.67102 | 25366 ft | 348 kts | 201° |
| 2026-04-20 10:03 | 36.88815 | -5.68141 | 25013 ft | 346 kts | 201° |
| 2026-04-20 10:04 | 36.86553 | -5.69174 | 24649 ft | 345 kts | 201° |
| 2026-04-20 10:04 | 36.84298 | -5.70204 | 24293 ft | 344 kts | 201° |
| 2026-04-20 10:04 | 36.82038 | -5.71236 | 23928 ft | 344 kts | 201° |
| 2026-04-20 10:04 | 36.79825 | -5.72245 | 23566 ft | 343 kts | 201° |
| 2026-04-20 10:05 | 36.77586 | -5.73267 | 23158 ft | 342 kts | 201° |
| 2026-04-20 10:05 | 36.75355 | -5.74284 | 22782 ft | 340 kts | 201° |
| 2026-04-20 10:05 | 36.73137 | -5.75294 | 22406 ft | 338 kts | 201° |
| 2026-04-20 10:05 | 36.70931 | -5.76298 | 22053 ft | 336 kts | 201° |
| 2026-04-20 10:06 | 36.68732 | -5.77298 | 21697 ft | 334 kts | 201° |
| 2026-04-20 10:06 | 36.66549 | -5.78291 | 21345 ft | 332 kts | 201° |
| 2026-04-20 10:06 | 36.64401 | -5.79266 | 21010 ft | 331 kts | 201° |
| 2026-04-20 10:06 | 36.62243 | -5.80247 | 20664 ft | 329 kts | 201° |
| 2026-04-20 10:07 | 36.60091 | -5.81223 | 20321 ft | 328 kts | 201° |
| 2026-04-20 10:07 | 36.57947 | -5.82195 | 19996 ft | 327 kts | 201° |
| 2026-04-20 10:07 | 36.55801 | -5.83166 | 19640 ft | 327 kts | 201° |
| 2026-04-20 10:07 | 36.53691 | -5.84122 | 19295 ft | 327 kts | 201° |
| 2026-04-20 10:08 | 36.51554 | -5.85089 | 18955 ft | 325 kts | 201° |
| 2026-04-20 10:08 | 36.49428 | -5.86051 | 18625 ft | 325 kts | 201° |
| 2026-04-20 10:08 | 36.47307 | -5.87012 | 18284 ft | 324 kts | 201° |
| 2026-04-20 10:08 | 36.45184 | -5.87972 | 17896 ft | 323 kts | 201° |
| 2026-04-20 10:09 | 36.43068 | -5.88929 | 17537 ft | 322 kts | 201° |
| 2026-04-20 10:09 | 36.40966 | -5.89878 | 17180 ft | 320 kts | 201° |
| 2026-04-20 10:09 | 36.38897 | -5.90810 | 16835 ft | 319 kts | 201° |
| 2026-04-20 10:09 | 36.36818 | -5.91748 | 16506 ft | 317 kts | 201° |
| 2026-04-20 10:10 | 36.34738 | -5.92686 | 16159 ft | 317 kts | 201° |
| 2026-04-20 10:10 | 36.32660 | -5.93623 | 15822 ft | 316 kts | 201° |
| 2026-04-20 10:10 | 36.30617 | -5.94544 | 15492 ft | 315 kts | 202° |
| 2026-04-20 10:10 | 36.28558 | -5.95468 | 15151 ft | 314 kts | 202° |
| 2026-04-20 10:11 | 36.26491 | -5.96396 | 14825 ft | 314 kts | 202° |
| 2026-04-20 10:11 | 36.24416 | -5.97278 | 14474 ft | 316 kts | 195° |
| 2026-04-20 10:11 | 36.22235 | -5.97575 | 13955 ft | 325 kts | 181° |
| 2026-04-20 10:11 | 36.19953 | -5.97465 | 13513 ft | 328 kts | 179° |
| 2026-04-20 10:12 | 36.17667 | -5.97313 | 13149 ft | 327 kts | 179° |
| 2026-04-20 10:12 | 36.15399 | -5.97162 | 12786 ft | 324 kts | 180° |
| 2026-04-20 10:12 | 36.13184 | -5.97023 | 12455 ft | 321 kts | 180° |
| 2026-04-20 10:12 | 36.10956 | -5.96892 | 12123 ft | 319 kts | 180° |
| 2026-04-20 10:13 | 36.08747 | -5.96767 | 11793 ft | 316 kts | 180° |
| 2026-04-20 10:13 | 36.06557 | -5.96648 | 11460 ft | 314 kts | 180° |
| 2026-04-20 10:13 | 36.04375 | -5.96533 | 11126 ft | 311 kts | 180° |
| 2026-04-20 10:13 | 36.02214 | -5.96421 | 10809 ft | 309 kts | 180° |
| 2026-04-20 10:14 | 36.00066 | -5.96309 | 10475 ft | 307 kts | 180° |
| 2026-04-20 10:14 | 35.97959 | -5.96230 | 10149 ft | 304 kts | 187° |
| 2026-04-20 10:14 | 35.95978 | -5.96922 | 10000 ft | 289 kts | 212° |
| 2026-04-20 10:14 | 35.94351 | -5.98290 | 9915 ft | 276 kts | 223° |
| 2026-04-20 10:15 | 35.92988 | -5.99935 | 9579 ft | 274 kts | 229° |
| 2026-04-20 10:15 | 35.91732 | -6.01620 | 9430 ft | 264 kts | 229° |
| 2026-04-20 10:15 | 35.90515 | -6.03280 | 9052 ft | 260 kts | 230° |
| 2026-04-20 10:15 | 35.89297 | -6.04954 | 8485 ft | 263 kts | 229° |
| 2026-04-20 10:16 | 35.88068 | -6.06657 | 7929 ft | 266 kts | 230° |
| 2026-04-20 10:16 | 35.86869 | -6.08325 | 7562 ft | 261 kts | 230° |
| 2026-04-20 10:16 | 35.85661 | -6.10016 | 7043 ft | 263 kts | 229° |
| 2026-04-20 10:16 | 35.84460 | -6.11713 | 6648 ft | 261 kts | 230° |
| 2026-04-20 10:17 | 35.83270 | -6.13400 | 6187 ft | 261 kts | 230° |
| 2026-04-20 10:17 | 35.82102 | -6.15067 | 5785 ft | 258 kts | 229° |
| 2026-04-20 10:17 | 35.80932 | -6.16751 | 5312 ft | 258 kts | 229° |
| 2026-04-20 10:17 | 35.79995 | -6.18602 | 4893 ft | 256 kts | 254° |
| 2026-04-20 10:18 | 35.79852 | -6.20788 | 4483 ft | 256 kts | 269° |
| 2026-04-20 10:18 | 35.79622 | -6.22873 | 4358 ft | 239 kts | 245° |
| 2026-04-20 10:18 | 35.78653 | -6.24423 | 4131 ft | 231 kts | 214° |
| 2026-04-20 10:18 | 35.77183 | -6.25093 | 3845 ft | 227 kts | 183° |
| 2026-04-20 10:19 | 35.75656 | -6.24723 | 3556 ft | 224 kts | 155° |
| 2026-04-20 10:19 | 35.74395 | -6.23623 | 3314 ft | 224 kts | 132° |
| 2026-04-20 10:19 | 35.73741 | -6.21902 | 3106 ft | 226 kts | 99° |
| 2026-04-20 10:19 | 35.73806 | -6.19991 | 3025 ft | 217 kts | 88° |
| 2026-04-20 10:20 | 35.73863 | -6.18173 | 2897 ft | 207 kts | 91° |
| 2026-04-20 10:20 | 35.73860 | -6.16460 | 2800 ft | 194 kts | 93° |
| 2026-04-20 10:20 | 35.73842 | -6.14832 | 2706 ft | 190 kts | 94° |
| 2026-04-20 10:20 | 35.73817 | -6.13216 | 2598 ft | 188 kts | 93° |
| 2026-04-20 10:21 | 35.73790 | -6.11601 | 2505 ft | 189 kts | 94° |
| 2026-04-20 10:21 | 35.73762 | -6.10007 | 2388 ft | 182 kts | 94° |
| 2026-04-20 10:21 | 35.73734 | -6.08469 | 2173 ft | 178 kts | 94° |
| 2026-04-20 10:21 | 35.73706 | -6.06963 | 1965 ft | 175 kts | 95° |
| 2026-04-20 10:22 | 35.73680 | -6.05489 | 1644 ft | 171 kts | 94° |
| 2026-04-20 10:22 | 35.73652 | -6.04063 | 1363 ft | 164 kts | 93° |
| 2026-04-20 10:22 | 35.73626 | -6.02697 | 1073 ft | 150 kts | 91° |
| 2026-04-20 10:22 | 35.73602 | -6.01466 | 809 ft | 139 kts | 90° |
| 2026-04-20 10:23 | 35.73592 | -6.00349 | 732 ft | 125 kts | 89° |
| 2026-04-20 10:23 | 35.73608 | -5.99273 | 716 ft | 124 kts | 88° |
| 2026-04-20 10:23 | 35.73638 | -5.98241 | 570 ft | 118 kts | 84° |
| 2026-04-20 10:23 | 35.73652 | -5.97209 | 494 ft | 124 kts | 93° |
| 2026-04-20 10:24 | 35.73541 | -5.96126 | 403 ft | 130 kts | 97° |
| 2026-04-20 10:24 | 35.73442 | -5.95022 | 232 ft | 127 kts | 96° |
| 2026-04-20 10:24 | 35.73339 | -5.93977 | 67 ft | 123 kts | 97° |
| 2026-04-20 10:24 | 35.73250 | -5.93021 | 40 ft | 89 kts | 96° |
| 2026-04-20 10:25 | 35.73199 | -5.92483 | 48 ft | 51 kts | 96° |
| 2026-04-20 10:25 | 35.73163 | -5.92083 | 53 ft | 43 kts | 96° |
| 2026-04-20 10:25 | 35.73128 | -5.91824 | 51 ft | 19 kts | 118° |
| 2026-04-20 10:25 | 35.73045 | -5.91742 | 55 ft | 13 kts | 162° |
| 2026-04-20 10:26 | 35.72958 | -5.91728 | 58 ft | 13 kts | 176° |
| 2026-04-20 10:26 | 35.72863 | -5.91719 | 58 ft | 15 kts | 174° |
| 2026-04-20 10:26 | 35.72752 | -5.91709 | 59 ft | 16 kts | 176° |
| 2026-04-20 10:26 | 35.72640 | -5.91698 | 59 ft | 16 kts | 175° |
| 2026-04-20 10:27 | 35.72530 | -5.91687 | 59 ft | 16 kts | 174° |
| 2026-04-20 10:27 | 35.72444 | -5.91619 | 56 ft | 15 kts | 122° |
| 2026-04-20 10:27 | 35.72430 | -5.91498 | 60 ft | 14 kts | 85° |
| 2026-04-20 10:27 | 35.72438 | -5.91381 | 63 ft | 10 kts | 85° |
| 2026-04-20 10:28 | 35.72492 | -5.91344 | 64 ft | 9 kts | 356° |
| 2026-04-20 10:28 | 35.72518 | -5.91337 | 61 ft | 1 kts | 70° |
| 2026-04-20 10:28 | 35.72515 | -5.91327 | 62 ft | 2 kts | 114° |
| 2026-04-20 10:28 | 35.72508 | -5.91314 | 61 ft | 0 kts | 130° |